Moncton, Canada
Current Conditions -  °F | °C
As of 7:00 AM on Saturday 20 Dec 2014 (Local Time) from CYQM Reporting Station
Overcast Overcast  
Wind Chill: 18°   Ceiling: 2500
Heat Index: 27°   Visibility: 15mi
Dew Point: 23°   Wind: 8mph
Humidity: 86%   Direction: 360°N
Pressure: 30.2"   Gusts: NA
Location:  46.09°N, 64.78°W
Report Text: CYQM 201100Z 36007KT 15SM OVC025 M03/M05 A3020 RMK SC8 SLP231
Loading
Personal Weather Stations






























Interactive Weather Map New forecast layout! Learn more

10-Day Weather Forecast

Advertisements
Track Severe Weather on mobile